Time;durP1;ratioP1;P1;durP2;ratioP2;P2;SDS_P1;SDS_P2;PMS_P1;PMS_P2;Temp;Humidity;BMP_temperature;BMP_pressure;BME280_temperature;BME280_humidity;BME280_pressure;Samples;Min_cycle;Max_cycle;Signal;HPM_P1;HPM_P2
2022/11/03 00:01:51;;;;;;;4.73;1.93;;;7.90;99.90;;;;;;4968663;28;20383;-72
2022/11/03 00:04:18;;;;;;;3.83;1.75;;;8.00;99.90;;;;;;4968226;28;20418;-73
2022/11/03 00:06:46;;;;;;;2.10;1.73;;;7.90;99.90;;;;;;4974351;28;20404;-72
2022/11/03 00:09:14;;;;;;;2.63;1.83;;;8.00;99.90;;;;;;4971075;28;20388;-73
2022/11/03 00:11:41;;;;;;;3.20;2.10;;;7.90;99.90;;;;;;4986830;28;20392;-72
2022/11/03 00:14:08;;;;;;;4.47;1.95;;;7.90;99.90;;;;;;4974186;28;20510;-73
2022/11/03 00:16:34;;;;;;;3.37;1.80;;;8.00;99.90;;;;;;4975238;28;20446;-72
2022/11/03 00:18:59;;;;;;;5.38;2.30;;;7.90;99.90;;;;;;4974730;28;20433;-72
2022/11/03 00:21:25;;;;;;;3.28;1.70;;;7.90;99.90;;;;;;4975436;28;20878;-73
2022/11/03 00:23:51;;;;;;;3.70;1.50;;;7.90;99.90;;;;;;4975611;28;20404;-74
2022/11/03 00:26:24;;;;;;;3.60;1.67;;;7.90;99.90;;;;;;4973460;28;20416;-72
2022/11/03 00:28:55;;;;;;;2.85;1.80;;;7.90;99.90;;;;;;4973417;28;20416;-73
2022/11/03 00:31:25;;;;;;;4.30;2.10;;;7.90;99.90;;;;;;4974877;28;20416;-72
2022/11/03 00:33:52;;;;;;;2.25;1.90;;;7.90;99.90;;;;;;4974585;28;20405;-73
2022/11/03 00:36:20;;;;;;;4.07;2.20;;;7.90;99.90;;;;;;4973756;28;20462;-73
2022/11/03 00:38:47;;;;;;;3.08;2.15;;;7.90;99.90;;;;;;4972770;28;20408;-72
2022/11/03 00:41:13;;;;;;;4.70;1.77;;;8.00;99.90;;;;;;4972283;28;20421;-72
2022/11/03 00:43:38;;;;;;;3.90;1.88;;;7.90;99.90;;;;;;4974557;28;20392;-73
2022/11/03 00:46:06;;;;;;;3.85;1.60;;;7.90;99.90;;;;;;4973338;28;20423;-73
2022/11/03 00:48:33;;;;;;;4.75;1.65;;;7.90;99.90;;;;;;4970141;28;20411;-72
2022/11/03 00:50:59;;;;;;;3.03;1.80;;;7.90;99.90;;;;;;4973756;28;20404;-72
2022/11/03 00:53:24;;;;;;;5.83;1.83;;;7.80;99.90;;;;;;4973791;28;20850;-72
2022/11/03 00:55:50;;;;;;;3.35;1.70;;;7.90;99.90;;;;;;4976664;28;20535;-72
2022/11/03 00:58:15;;;;;;;4.23;1.90;;;7.90;99.90;;;;;;4973401;28;20404;-72
2022/11/03 01:00:41;;;;;;;4.83;1.70;;;7.80;99.90;;;;;;4976734;28;20508;-72
2022/11/03 01:03:06;;;;;;;2.03;1.70;;;7.80;99.90;;;;;;4973400;28;20400;-72
2022/11/03 01:08:16;;;;;;;2.58;1.65;;;7.80;99.90;;;;;;4973700;28;20415;-73
2022/11/03 01:11:42;;;;;;;4.40;1.60;;;7.70;99.90;;;;;;4973743;28;20408;-73
2022/11/03 01:13:27;;;;;;;4.15;2.17;;;7.70;99.90;;;;;;4973245;28;20396;-72
2022/11/03 01:15:57;;;;;;;3.33;1.70;;;7.70;99.90;;;;;;4974736;28;20758;-73
2022/11/03 01:18:23;;;;;;;4.75;1.60;;;7.60;99.90;;;;;;4982129;28;20888;-72
2022/11/03 01:20:56;;;;;;;2.88;1.60;;;7.60;99.90;;;;;;4988045;28;20393;-72
2022/11/03 01:23:23;;;;;;;2.50;1.60;;;7.60;99.90;;;;;;4972677;28;20384;-73
2022/11/03 01:25:49;;;;;;;2.00;1.80;;;7.60;99.90;;;;;;4973100;28;20472;-72
2022/11/03 01:28:14;;;;;;;2.75;2.28;;;7.60;99.90;;;;;;4973402;28;20400;-72
2022/11/03 01:30:40;;;;;;;4.13;2.47;;;7.50;99.90;;;;;;4972308;28;20977;-72
2022/11/03 01:33:05;;;;;;;3.50;2.07;;;7.50;99.90;;;;;;4974794;28;20400;-72
2022/11/03 01:35:31;;;;;;;3.00;1.70;;;7.50;99.90;;;;;;4975513;28;20760;-73
2022/11/03 01:37:56;;;;;;;3.90;1.70;;;7.50;99.90;;;;;;4971615;28;20423;-73
2022/11/03 01:40:22;;;;;;;4.03;1.60;;;7.50;99.90;;;;;;4973301;28;20420;-73
2022/11/03 01:42:48;;;;;;;4.50;1.67;;;7.50;99.90;;;;;;4972103;28;20408;-72
2022/11/03 01:45:13;;;;;;;3.80;1.90;;;7.50;99.90;;;;;;4975025;28;20412;-71
2022/11/03 01:47:41;;;;;;;5.20;1.70;;;7.60;99.90;;;;;;4972574;28;20438;-72
2022/11/03 01:50:11;;;;;;;2.95;1.80;;;7.60;99.90;;;;;;4973513;28;20782;-73
2022/11/03 01:52:47;;;;;;;3.20;1.73;;;7.60;99.90;;;;;;4970292;28;20419;-72
2022/11/03 01:55:18;;;;;;;3.97;1.70;;;7.60;99.90;;;;;;4971564;28;20414;-72
2022/11/03 01:57:52;;;;;;;2.05;1.67;;;7.60;99.90;;;;;;4971623;28;20555;-72
2022/11/03 02:00:18;;;;;;;2.20;2.00;;;7.50;99.90;;;;;;4975797;28;20416;-72
2022/11/03 02:02:44;;;;;;;3.20;1.50;;;7.50;99.90;;;;;;4975359;28;20408;-71
2022/11/03 02:05:14;;;;;;;2.70;1.55;;;7.50;99.90;;;;;;4971828;28;20886;-72
2022/11/03 02:07:43;;;;;;;2.25;1.65;;;7.40;99.90;;;;;;4975040;28;20474;-72
2022/11/03 02:10:09;;;;;;;3.70;1.90;;;7.50;99.90;;;;;;4972435;28;20949;-72
2022/11/03 02:12:36;;;;;;;2.90;1.58;;;7.50;99.90;;;;;;4977503;28;20412;-72
2022/11/03 02:15:09;;;;;;;3.65;1.50;;;7.50;99.90;;;;;;4967983;28;20465;-72
2022/11/03 02:17:36;;;;;;;3.40;1.65;;;7.50;99.90;;;;;;4967367;28;20415;-72
2022/11/03 02:20:05;;;;;;;2.05;1.50;;;7.50;99.90;;;;;;4970248;28;20412;-72
2022/11/03 02:23:03;;;;;;;3.25;1.77;;;7.30;99.90;;;;;;4972002;28;20420;-70
2022/11/03 02:25:49;;;;;;;3.10;2.20;;;7.40;99.90;;;;;;5002218;28;20404;-72
2022/11/03 02:28:18;;;;;;;1.60;1.50;;;7.50;99.90;;;;;;4971954;28;20403;-71
2022/11/03 02:31:04;;;;;;;2.60;1.90;;;7.60;99.90;;;;;;4972516;28;20921;-72
2022/11/03 02:33:48;;;;;;;2.53;1.35;;;7.50;99.90;;;;;;4971462;28;20766;-72
2022/11/03 02:36:41;;;;;;;3.00;1.80;;;7.50;99.90;;;;;;4973930;28;20407;-72
2022/11/03 02:39:19;;;;;;;1.90;1.38;;;7.30;99.90;;;;;;4971631;28;20774;-73
2022/11/03 02:41:47;;;;;;;2.20;1.60;;;7.30;99.90;;;;;;4971894;28;20459;-72
2022/11/03 02:44:18;;;;;;;3.33;1.50;;;7.30;99.90;;;;;;4969584;28;20415;-73
2022/11/03 02:46:53;;;;;;;2.10;1.87;;;7.40;99.90;;;;;;4971360;28;20469;-72
2022/11/03 02:49:19;;;;;;;3.40;1.77;;;7.40;99.90;;;;;;4970634;28;20466;-73
2022/11/03 02:51:44;;;;;;;2.50;1.60;;;7.50;99.90;;;;;;4971889;28;20423;-73
2022/11/03 02:54:33;;;;;;;4.10;1.70;;;7.50;99.90;;;;;;4969806;28;20412;-73
2022/11/03 02:57:10;;;;;;;2.67;1.65;;;7.50;99.90;;;;;;4972485;28;20608;-73
2022/11/03 03:00:05;;;;;;;3.47;1.90;;;7.50;99.90;;;;;;4970729;28;20422;-72
2022/11/03 03:02:56;;;;;;;3.03;1.80;;;7.50;99.90;;;;;;4976546;28;20474;-72
2022/11/03 03:05:26;;;;;;;3.97;1.77;;;7.50;99.90;;;;;;4973633;28;20415;-72
2022/11/03 03:07:57;;;;;;;5.30;1.65;;;7.50;99.90;;;;;;4970131;28;20396;-72
2022/11/03 03:10:27;;;;;;;2.78;1.83;;;7.50;99.90;;;;;;4972366;28;20454;-72
2022/11/03 03:12:55;;;;;;;5.03;1.90;;;7.50;99.90;;;;;;4989344;28;20824;-72
2022/11/03 03:15:28;;;;;;;2.80;1.50;;;7.40;99.90;;;;;;4971637;28;20392;-73
2022/11/03 03:18:04;;;;;;;2.25;1.80;;;7.40;99.90;;;;;;4984286;28;20391;-71
2022/11/03 03:20:48;;;;;;;2.83;1.70;;;7.30;99.90;;;;;;4988561;28;20402;-72
2022/11/03 03:23:19;;;;;;;3.20;1.90;;;7.30;99.90;;;;;;4970963;28;20392;-71
2022/11/03 03:26:12;;;;;;;4.70;1.80;;;7.30;99.90;;;;;;4970950;28;20543;-72
2022/11/03 03:28:44;;;;;;;4.22;2.10;;;7.20;99.90;;;;;;4949260;28;20409;-72
2022/11/03 03:31:13;;;;;;;4.90;1.70;;;7.30;99.90;;;;;;4969349;28;20446;-72
2022/11/03 03:33:39;;;;;;;2.60;1.60;;;7.40;99.90;;;;;;4970822;28;20475;-71
2022/11/03 03:36:12;;;;;;;5.00;1.90;;;7.40;99.90;;;;;;4972843;28;20406;-72
2022/11/03 03:38:43;;;;;;;2.38;1.60;;;7.40;99.90;;;;;;4970218;28;20414;-72
2022/11/03 03:41:20;;;;;;;3.45;1.80;;;7.40;99.90;;;;;;4975060;28;20408;-72
2022/11/03 03:43:50;;;;;;;2.90;2.00;;;7.50;99.90;;;;;;4970919;28;20432;-72
2022/11/03 03:46:18;;;;;;;2.47;1.75;;;7.50;99.90;;;;;;4972322;28;21537;-72
2022/11/03 03:48:43;;;;;;;4.45;1.92;;;7.50;99.90;;;;;;4972443;28;20416;-72
2022/11/03 03:51:11;;;;;;;3.43;2.10;;;7.60;99.90;;;;;;4974814;28;20423;-72
2022/11/03 03:53:37;;;;;;;3.60;1.70;;;7.70;99.90;;;;;;4973620;28;20902;-72
2022/11/03 03:56:04;;;;;;;2.60;1.73;;;7.70;99.90;;;;;;4974203;28;20414;-72
2022/11/03 03:58:30;;;;;;;2.10;1.40;;;7.80;99.90;;;;;;4974720;28;20758;-72
2022/11/03 04:00:56;;;;;;;4.30;1.73;;;7.70;99.90;;;;;;4973883;28;20415;-72
2022/11/03 04:03:24;;;;;;;2.20;1.60;;;7.70;99.90;;;;;;4974205;28;20403;-72
2022/11/03 04:05:49;;;;;;;4.80;2.03;;;7.80;99.90;;;;;;4974020;28;21001;-71
2022/11/03 04:08:16;;;;;;;2.00;1.67;;;7.80;99.90;;;;;;4973442;28;20436;-72
2022/11/03 04:22:22;;;;;;;4.80;2.30;;;7.80;99.90;;;;;;4967913;28;20396;-73
2022/11/03 04:24:28;;;;;;;3.25;1.80;;;7.90;99.90;;;;;;4977862;28;20467;-72
2022/11/03 04:27:01;;;;;;;2.40;2.00;;;7.80;99.90;;;;;;4972942;28;20416;-72
2022/11/03 04:29:27;;;;;;;2.80;1.83;;;7.80;99.90;;;;;;4973266;28;20490;-71
2022/11/03 04:31:53;;;;;;;5.15;2.20;;;7.70;99.90;;;;;;4969003;28;20415;-72
2022/11/03 04:34:18;;;;;;;3.17;2.07;;;7.70;99.90;;;;;;4974177;28;20415;-73
2022/11/03 04:36:44;;;;;;;2.20;1.80;;;7.80;99.90;;;;;;4973902;28;20404;-73
2022/11/03 04:39:17;;;;;;;3.20;1.83;;;7.60;99.90;;;;;;4971611;28;20416;-73
2022/11/03 04:41:43;;;;;;;3.87;1.87;;;7.70;99.90;;;;;;4972983;28;20431;-72
2022/11/03 04:44:15;;;;;;;3.75;2.00;;;7.70;99.90;;;;;;4972842;28;20406;-72
2022/11/03 04:46:42;;;;;;;4.20;1.70;;;7.60;99.90;;;;;;4971894;28;20496;-72
2022/11/03 04:49:15;;;;;;;2.20;2.00;;;7.60;99.90;;;;;;4976302;28;20482;-72
2022/11/03 04:51:41;;;;;;;4.20;1.70;;;7.60;99.90;;;;;;4974299;28;20388;-72
2022/11/03 04:54:18;;;;;;;3.58;2.17;;;7.60;99.90;;;;;;4977395;28;20748;-72
2022/11/03 04:56:43;;;;;;;2.40;1.67;;;7.70;99.90;;;;;;4975049;28;20412;-72
2022/11/03 04:59:14;;;;;;;4.05;2.30;;;7.60;99.90;;;;;;4972482;28;20419;-73
2022/11/03 05:01:41;;;;;;;1.73;1.60;;;7.70;99.90;;;;;;4973125;28;20436;-73
2022/11/03 05:04:16;;;;;;;2.47;1.70;;;7.60;99.90;;;;;;4971756;28;20415;-72
2022/11/03 05:06:51;;;;;;;3.00;2.00;;;7.70;99.90;;;;;;4972862;28;20408;-72
2022/11/03 05:09:25;;;;;;;3.83;2.03;;;7.60;99.90;;;;;;4971111;28;20415;-72
2022/11/03 05:11:51;;;;;;;3.13;2.15;;;7.60;99.90;;;;;;4973268;28;20411;-72
2022/11/03 05:14:23;;;;;;;4.03;2.20;;;7.60;99.90;;;;;;4973294;28;20473;-73
2022/11/03 05:16:52;;;;;;;3.97;2.10;;;7.60;99.90;;;;;;4976992;28;20436;-73
2022/11/03 05:19:20;;;;;;;4.60;2.10;;;7.50;99.90;;;;;;4975022;28;20894;-72
2022/11/03 05:21:49;;;;;;;3.75;2.00;;;7.60;99.90;;;;;;4975837;28;20422;-73
2022/11/03 05:24:17;;;;;;;3.60;2.00;;;7.50;99.90;;;;;;4972472;28;20487;-73
2022/11/03 05:26:44;;;;;;;3.07;2.43;;;7.40;99.90;;;;;;4973567;28;20938;-72
2022/11/03 05:29:23;;;;;;;4.05;2.42;;;7.40;99.90;;;;;;4975405;23;20550;-71
2022/11/03 05:31:50;;;;;;;3.70;2.45;;;7.40;99.90;;;;;;4951911;28;20413;-71
2022/11/03 05:34:45;;;;;;;2.30;1.77;;;7.40;99.90;;;;;;4951332;28;20900;-71
2022/11/03 05:37:32;;;;;;;2.77;2.17;;;7.30;99.90;;;;;;4953592;28;20409;-71
2022/11/03 05:40:02;;;;;;;4.43;2.50;;;7.20;99.90;;;;;;4951264;29;20508;-71
2022/11/03 05:42:35;;;;;;;3.60;2.73;;;7.30;99.90;;;;;;4951973;28;20425;-71
2022/11/03 05:45:22;;;;;;;4.13;2.22;;;7.30;99.90;;;;;;4950641;28;20772;-71
2022/11/03 05:47:49;;;;;;;4.88;2.63;;;7.40;99.90;;;;;;4946667;29;20497;-71
2022/11/03 05:50:23;;;;;;;5.00;2.60;;;7.50;99.90;;;;;;4952422;28;20413;-71
2022/11/03 05:52:52;;;;;;;3.80;2.00;;;7.50;99.90;;;;;;4951273;28;20413;-71
2022/11/03 05:55:30;;;;;;;2.50;2.30;;;7.50;99.90;;;;;;4951781;28;20772;-71
2022/11/03 05:57:58;;;;;;;3.90;2.50;;;7.50;99.90;;;;;;4951739;28;20417;-71
2022/11/03 06:00:36;;;;;;;5.37;2.10;;;7.50;99.90;;;;;;4951587;28;20865;-71
2022/11/03 06:03:03;;;;;;;4.63;2.63;;;7.50;99.90;;;;;;4951544;28;20409;-72
2022/11/03 06:05:30;;;;;;;6.20;3.40;;;7.60;99.90;;;;;;4950774;28;20410;-72
2022/11/03 06:08:01;;;;;;;3.15;2.50;;;7.50;99.90;;;;;;4952918;28;20401;-72
2022/11/03 06:10:30;;;;;;;4.93;2.40;;;7.50;99.90;;;;;;4951888;28;20409;-72
2022/11/03 06:13:01;;;;;;;4.00;2.72;;;7.60;99.90;;;;;;4951857;28;20417;-72
2022/11/03 06:15:39;;;;;;;5.43;3.30;;;7.60;99.90;;;;;;4951071;29;20482;-72
2022/11/03 06:18:28;;;;;;;4.22;2.85;;;7.70;99.90;;;;;;4951938;28;20456;-72
2022/11/03 06:21:01;;;;;;;4.82;3.10;;;7.70;99.90;;;;;;4952204;28;20557;-72
2022/11/03 06:23:27;;;;;;;4.00;3.00;;;7.70;99.90;;;;;;4952077;28;20649;-72
2022/11/03 06:25:55;;;;;;;3.20;2.50;;;7.70;99.90;;;;;;4951001;28;20492;-72
2022/11/03 06:28:26;;;;;;;2.80;2.10;;;7.70;99.90;;;;;;4951989;28;20472;-72
2022/11/03 06:30:52;;;;;;;3.55;2.60;;;7.80;99.90;;;;;;4950775;28;20409;-71
2022/11/03 06:33:30;;;;;;;4.75;2.40;;;7.70;99.90;;;;;;4951742;29;20414;-72
2022/11/03 06:36:05;;;;;;;5.57;2.80;;;7.70;99.90;;;;;;4950178;28;20416;-72
2022/11/03 06:38:33;;;;;;;3.05;2.70;;;7.70;99.90;;;;;;4945236;29;20497;-72
2022/11/03 06:40:59;;;;;;;8.30;2.80;;;7.60;99.90;;;;;;4951359;29;20418;-72
2022/11/03 06:43:39;;;;;;;4.63;2.60;;;7.60;99.90;;;;;;4945820;29;20941;-72
2022/11/03 06:46:12;;;;;;;2.83;2.53;;;7.70;99.90;;;;;;4947682;29;20422;-72
2022/11/03 06:48:38;;;;;;;4.53;2.80;;;7.80;99.90;;;;;;4947180;28;20452;-71
2022/11/03 06:51:15;;;;;;;4.25;2.58;;;7.80;99.90;;;;;;4948995;29;20864;-71
2022/11/03 06:53:40;;;;;;;3.33;2.45;;;7.90;99.90;;;;;;4948299;29;20508;-72
2022/11/03 06:56:11;;;;;;;5.28;2.95;;;7.90;99.90;;;;;;4950215;29;20881;-72
2022/11/03 06:58:39;;;;;;;2.95;2.42;;;7.90;99.90;;;;;;4950676;29;20473;-72
2022/11/03 07:01:17;;;;;;;5.57;2.95;;;8.00;99.90;;;;;;4951391;28;20413;-72
2022/11/03 07:03:43;;;;;;;4.03;2.80;;;8.00;99.90;;;;;;4948703;29;20490;-72
2022/11/03 07:06:25;;;;;;;3.67;2.80;;;8.00;99.90;;;;;;4950362;29;20410;-72
2022/11/03 07:08:57;;;;;;;3.80;2.30;;;8.00;99.90;;;;;;4951431;28;20496;-72
2022/11/03 07:11:28;;;;;;;4.80;3.00;;;8.10;99.90;;;;;;4951198;28;20413;-72
2022/11/03 07:14:05;;;;;;;3.13;2.50;;;8.20;99.90;;;;;;4948799;28;20757;-72
2022/11/03 07:16:41;;;;;;;2.50;2.30;;;8.20;99.90;;;;;;4948693;28;20452;-72
2022/11/03 07:19:18;;;;;;;3.97;2.60;;;8.20;99.90;;;;;;4950014;28;20417;-71
2022/11/03 07:21:47;;;;;;;3.00;2.70;;;8.30;99.90;;;;;;4948627;28;20469;-72
2022/11/03 07:24:18;;;;;;;5.00;3.00;;;8.40;99.90;;;;;;4950783;28;20609;-72
2022/11/03 07:26:47;;;;;;;2.60;2.40;;;8.60;99.90;;;;;;4947629;28;20508;-72
2022/11/03 07:29:19;;;;;;;4.28;2.70;;;8.60;99.90;;;;;;4948743;28;20496;-72
2022/11/03 07:31:45;;;;;;;3.83;2.60;;;8.60;99.90;;;;;;4948057;28;20492;-72
2022/11/03 07:34:17;;;;;;;4.20;2.80;;;8.70;99.90;;;;;;4948475;28;20497;-73
2022/11/03 07:36:44;;;;;;;5.32;2.80;;;8.80;99.90;;;;;;4949721;29;20982;-72
2022/11/03 07:39:14;;;;;;;4.07;2.90;;;8.80;99.90;;;;;;4949720;28;20433;-72
2022/11/03 07:41:40;;;;;;;3.45;2.60;;;8.90;99.90;;;;;;4949641;29;20449;-72
2022/11/03 07:44:14;;;;;;;4.00;2.90;;;8.90;99.90;;;;;;4949015;29;20417;-72
2022/11/03 07:46:42;;;;;;;4.15;2.47;;;9.10;99.90;;;;;;4946297;28;20482;-72
2022/11/03 07:49:25;;;;;;;3.42;2.70;;;9.10;99.90;;;;;;4947673;29;20409;-71
2022/11/03 07:51:51;;;;;;;3.50;2.80;;;9.20;99.90;;;;;;4947691;28;20506;-72
2022/11/03 07:54:23;;;;;;;3.00;2.30;;;9.30;99.90;;;;;;4950600;28;20409;-73
2022/11/03 07:57:02;;;;;;;3.92;2.55;;;9.30;99.90;;;;;;4950987;29;20413;-73
2022/11/03 07:59:31;;;;;;;2.83;2.40;;;9.50;99.90;;;;;;4949632;29;20418;-72
2022/11/03 08:01:58;;;;;;;2.80;2.50;;;9.60;99.90;;;;;;4949107;28;20812;-72
2022/11/03 08:04:29;;;;;;;3.50;2.58;;;9.80;99.90;;;;;;4963109;28;20406;-72
2022/11/03 08:06:55;;;;;;;4.75;2.85;;;9.90;99.90;;;;;;4951696;28;20392;-72
2022/11/03 08:09:21;;;;;;;3.60;2.50;;;9.80;99.90;;;;;;4948832;29;20414;-72
2022/11/03 08:11:47;;;;;;;4.83;2.93;;;9.90;99.90;;;;;;4947190;29;20576;-72
2022/11/03 08:14:12;;;;;;;6.07;3.03;;;10.00;99.90;;;;;;4948028;28;20500;-73
2022/11/03 08:16:38;;;;;;;5.27;3.40;;;10.10;99.90;;;;;;4951119;28;20396;-72
2022/11/03 08:19:04;;;;;;;4.50;3.20;;;10.20;99.90;;;;;;4951377;29;20476;-72
2022/11/03 08:21:29;;;;;;;3.13;2.83;;;10.30;99.90;;;;;;4951608;28;20388;-72
2022/11/03 08:23:55;;;;;;;4.95;2.95;;;10.40;99.90;;;;;;4951379;28;20385;-72
2022/11/03 08:26:20;;;;;;;4.90;2.72;;;10.50;99.90;;;;;;4949693;28;20413;-72
2022/11/03 08:28:47;;;;;;;3.65;2.70;;;10.80;99.90;;;;;;4950146;28;20406;-72
2022/11/03 08:31:12;;;;;;;4.35;2.92;;;10.90;99.90;;;;;;4946656;28;20505;-72
2022/11/03 08:33:38;;;;;;;4.43;2.55;;;11.10;99.90;;;;;;4951511;28;20501;-72
2022/11/03 08:36:04;;;;;;;4.93;2.53;;;11.30;99.90;;;;;;4951292;29;20756;-73
2022/11/03 08:38:29;;;;;;;3.00;2.70;;;11.50;99.90;;;;;;4953340;28;20492;-73
2022/11/03 08:40:57;;;;;;;2.90;2.60;;;11.60;99.90;;;;;;4952759;28;20417;-72
2022/11/03 08:43:23;;;;;;;4.55;2.30;;;11.70;99.90;;;;;;4954452;28;20405;-73
2022/11/03 08:45:52;;;;;;;2.70;2.10;;;11.80;99.90;;;;;;4953895;28;20393;-72
2022/11/03 08:48:19;;;;;;;3.97;2.83;;;11.90;99.90;;;;;;4953347;28;20484;-74
2022/11/03 08:50:45;;;;;;;4.17;2.53;;;12.00;99.90;;;;;;4969454;28;20425;-72
2022/11/03 08:53:10;;;;;;;3.67;2.30;;;12.20;99.90;;;;;;4954680;29;20828;-73
2022/11/03 08:55:36;;;;;;;3.00;2.20;;;12.30;99.90;;;;;;4954850;29;20394;-73
2022/11/03 08:58:01;;;;;;;2.33;2.13;;;12.50;99.90;;;;;;4954883;29;20393;-72
2022/11/03 09:00:27;;;;;;;4.40;2.70;;;12.40;99.90;;;;;;4954737;29;20417;-72
2022/11/03 09:02:52;;;;;;;4.20;2.40;;;12.60;99.90;;;;;;4952704;28;20908;-72
2022/11/03 09:05:18;;;;;;;2.70;2.20;;;12.60;99.90;;;;;;4951112;28;20440;-72
2022/11/03 09:07:44;;;;;;;4.55;2.30;;;12.90;99.90;;;;;;4953755;29;20850;-72
2022/11/03 09:10:10;;;;;;;3.90;3.00;;;12.90;99.90;;;;;;4952641;28;20433;-73
2022/11/03 09:12:37;;;;;;;3.67;2.22;;;13.20;99.90;;;;;;4951021;28;20444;-71
2022/11/03 09:15:03;;;;;;;2.65;2.25;;;13.10;99.90;;;;;;4949298;28;20422;-73
2022/11/03 09:17:32;;;;;;;3.33;2.30;;;13.20;99.90;;;;;;4951748;29;20417;-75
2022/11/03 09:19:57;;;;;;;2.50;2.30;;;13.40;99.90;;;;;;4951966;28;20463;-72
2022/11/03 09:22:23;;;;;;;3.60;2.30;;;13.60;99.90;;;;;;4953060;28;20496;-72
2022/11/03 09:24:48;;;;;;;5.65;2.70;;;13.70;99.90;;;;;;4950994;28;20406;-72
2022/11/03 09:27:14;;;;;;;3.90;2.40;;;13.70;99.90;;;;;;4953939;28;20402;-72
2022/11/03 09:29:40;;;;;;;2.83;2.57;;;13.80;99.90;;;;;;4954396;28;20417;-73
2022/11/03 09:32:05;;;;;;;2.67;2.17;;;13.70;99.90;;;;;;4950480;28;20441;-72
2022/11/03 09:34:31;;;;;;;2.88;2.42;;;13.90;99.90;;;;;;4956466;28;20543;-73
2022/11/03 09:36:57;;;;;;;2.60;2.40;;;13.90;99.90;;;;;;4952692;28;20854;-73
2022/11/03 09:39:23;;;;;;;33.35;22.88;;;13.90;99.90;;;;;;4952523;28;20421;-73
2022/11/03 09:41:50;;;;;;;3.63;3.22;;;13.90;99.90;;;;;;4953511;28;20417;-72
2022/11/03 09:44:16;;;;;;;4.88;3.33;;;14.00;99.90;;;;;;4951332;28;20876;-73
2022/11/03 09:46:41;;;;;;;3.50;2.60;;;14.10;99.90;;;;;;4950637;28;20413;-72
2022/11/03 09:49:09;;;;;;;3.10;2.40;;;14.30;99.90;;;;;;4952150;28;20425;-72
2022/11/03 09:51:35;;;;;;;4.50;2.60;;;14.30;99.90;;;;;;4951399;28;20426;-72
2022/11/03 09:54:03;;;;;;;3.50;2.40;;;14.30;99.90;;;;;;4955452;28;20560;-72
2022/11/03 09:56:29;;;;;;;3.78;2.50;;;14.30;99.90;;;;;;4947307;28;20449;-72
2022/11/03 09:58:55;;;;;;;3.75;2.47;;;14.60;99.90;;;;;;4950440;28;20413;-72
2022/11/03 10:01:21;;;;;;;3.45;2.13;;;14.60;99.90;;;;;;4950976;28;20414;-72
2022/11/03 10:03:47;;;;;;;4.73;2.40;;;14.60;99.90;;;;;;4952964;29;20390;-72
2022/11/03 10:06:15;;;;;;;5.90;3.50;;;14.70;99.90;;;;;;4951563;28;20416;-73
2022/11/03 10:08:43;;;;;;;3.63;3.20;;;14.80;99.90;;;;;;4951921;28;20473;-72
2022/11/03 10:11:09;;;;;;;5.18;3.25;;;14.70;99.90;;;;;;4953427;28;20906;-72
2022/11/03 10:13:38;;;;;;;4.63;3.10;;;14.70;99.90;;;;;;4952669;28;20385;-73
2022/11/03 10:16:07;;;;;;;6.38;3.00;;;14.80;99.90;;;;;;4951915;28;20405;-72
2022/11/03 10:18:34;;;;;;;3.53;2.70;;;14.90;99.90;;;;;;4950666;28;20804;-73
2022/11/03 10:21:05;;;;;;;3.20;2.40;;;15.10;99.90;;;;;;4951152;29;20489;-73
2022/11/03 10:23:31;;;;;;;3.97;2.28;;;15.40;99.90;;;;;;4951573;28;20505;-72
2022/11/03 10:26:08;;;;;;;2.53;2.33;;;15.50;99.90;;;;;;4953546;28;20968;-73
2022/11/03 10:28:34;;;;;;;4.27;2.90;;;15.40;99.90;;;;;;4940873;29;20418;-73
2022/11/03 10:31:07;;;;;;;2.90;2.50;;;15.50;99.90;;;;;;4947808;28;20927;-73
2022/11/03 10:33:35;;;;;;;4.85;2.63;;;15.50;99.90;;;;;;4946371;29;21006;-73
2022/11/03 10:36:14;;;;;;;2.50;2.23;;;15.30;99.90;;;;;;4951104;28;20418;-72
2022/11/03 10:38:40;;;;;;;2.20;2.00;;;15.50;99.90;;;;;;4950256;28;20410;-72
2022/11/03 10:41:19;;;;;;;2.40;2.20;;;15.40;99.90;;;;;;4951056;28;20413;-72
2022/11/03 10:44:10;;;;;;;3.42;1.90;;;15.40;99.90;;;;;;4950228;29;20409;-72
2022/11/03 10:46:36;;;;;;;2.43;2.07;;;15.40;99.90;;;;;;4949939;29;20792;-72
2022/11/03 10:49:14;;;;;;;3.22;2.30;;;15.30;99.90;;;;;;4950698;28;20410;-72
2022/11/03 10:51:46;;;;;;;2.38;2.17;;;15.30;99.90;;;;;;4949893;28;20470;-73
2022/11/03 10:54:16;;;;;;;3.72;2.40;;;15.40;99.90;;;;;;4953264;28;20417;-72
2022/11/03 10:56:42;;;;;;;4.00;2.20;;;15.60;99.90;;;;;;4968808;28;20496;-72
2022/11/03 10:59:15;;;;;;;4.10;2.20;;;15.60;99.90;;;;;;4950962;28;20421;-72
2022/11/03 11:01:41;;;;;;;4.18;2.28;;;15.70;99.90;;;;;;4949695;28;20402;-72
2022/11/03 11:04:06;;;;;;;2.83;2.30;;;15.70;99.90;;;;;;4950783;28;20416;-72
2022/11/03 11:06:32;;;;;;;3.22;2.47;;;15.50;99.90;;;;;;4951829;28;20447;-72
2022/11/03 11:09:03;;;;;;;3.08;2.22;;;15.50;99.90;;;;;;4958308;28;20895;-72
2022/11/03 11:11:29;;;;;;;5.43;2.20;;;15.70;99.90;;;;;;4955438;28;20474;-72
2022/11/03 11:14:19;;;;;;;3.20;2.55;;;15.70;99.90;;;;;;4948157;28;20520;-72
2022/11/03 11:16:57;;;;;;;5.80;3.70;;;15.60;99.90;;;;;;4948510;29;20405;-73
2022/11/03 11:19:25;;;;;;;7.25;3.60;;;15.50;99.90;;;;;;4952075;28;20453;-73
2022/11/03 11:21:53;;;;;;;6.53;5.20;;;15.70;99.90;;;;;;4950709;28;20424;-73
2022/11/03 11:24:43;;;;;;;5.90;3.85;;;15.80;99.90;;;;;;4951701;28;20406;-73
2022/11/03 11:27:30;;;;;;;8.35;5.10;;;15.90;99.90;;;;;;4948712;29;20406;-72
2022/11/03 11:29:57;;;;;;;7.07;4.85;;;15.90;99.90;;;;;;4950063;29;20529;-73
2022/11/03 11:32:38;;;;;;;6.03;5.03;;;15.60;99.90;;;;;;4966558;23;20537;-73
2022/11/03 11:35:07;;;;;;;6.40;4.60;;;15.60;99.90;;;;;;4932610;29;20936;-74
2022/11/03 11:37:34;;;;;;;8.27;5.38;;;15.40;99.90;;;;;;4935789;29;20761;-73
2022/11/03 11:40:00;;;;;;;9.95;5.82;;;15.20;99.90;;;;;;4936286;28;20487;-74
2022/11/03 11:42:26;;;;;;;6.93;5.82;;;15.20;99.90;;;;;;4936158;28;20524;-74
2022/11/03 11:44:56;;;;;;;9.80;5.60;;;15.20;99.90;;;;;;4928535;29;20419;-73
2022/11/03 11:47:40;;;;;;;10.65;6.28;;;15.20;99.90;;;;;;4931122;29;20417;-74
2022/11/03 11:50:05;;;;;;;11.95;7.10;;;15.10;99.90;;;;;;4926643;29;20498;-75
2022/11/03 11:52:43;;;;;;;6.57;5.50;;;14.90;99.90;;;;;;4931093;29;20498;-75
2022/11/03 11:55:24;;;;;;;9.32;5.63;;;14.90;99.90;;;;;;4929393;29;20482;-75
2022/11/03 11:57:50;;;;;;;9.23;6.20;;;14.90;99.90;;;;;;4926206;29;20415;-74
2022/11/03 12:00:34;;;;;;;10.90;6.13;;;14.90;99.90;;;;;;4930888;29;20423;-75
2022/11/03 12:03:02;;;;;;;12.13;7.40;;;14.90;99.90;;;;;;4946389;28;20916;-74
2022/11/03 12:05:31;;;;;;;10.90;7.35;;;15.00;99.90;;;;;;4929840;29;20420;-74
2022/11/03 12:07:58;;;;;;;12.35;6.63;;;14.90;99.90;;;;;;4940803;28;20458;-74
2022/11/03 12:10:30;;;;;;;10.85;6.70;;;15.00;99.90;;;;;;4934076;29;20414;-74
2022/11/03 12:12:57;;;;;;;11.85;6.82;;;15.10;99.90;;;;;;4935367;29;20898;-74
2022/11/03 12:15:54;;;;;;;8.52;6.00;;;15.10;99.90;;;;;;4936185;29;20423;-74
2022/11/03 12:18:33;;;;;;;8.40;6.18;;;15.20;99.90;;;;;;4941490;29;20968;-73
2022/11/03 12:21:03;;;;;;;10.63;6.85;;;15.10;99.90;;;;;;4933205;29;20455;-75
2022/11/03 12:23:41;;;;;;;8.02;5.13;;;15.20;99.90;;;;;;4935084;29;20446;-75
2022/11/03 12:26:14;;;;;;;7.32;5.05;;;15.10;99.90;;;;;;4945223;29;20411;-75
2022/11/03 12:28:40;;;;;;;10.15;5.45;;;15.10;99.90;;;;;;4928785;29;20391;-74
2022/11/03 12:31:06;;;;;;;6.57;4.25;;;15.20;99.90;;;;;;4932065;29;20418;-73
2022/11/03 12:33:31;;;;;;;6.53;4.63;;;15.30;99.90;;;;;;4934757;29;20426;-73
2022/11/03 12:35:57;;;;;;;7.47;4.57;;;15.30;99.90;;;;;;4934725;29;20442;-75
2022/11/03 12:38:23;;;;;;;7.10;4.03;;;15.40;99.90;;;;;;4933825;29;20445;-74
2022/11/03 12:40:49;;;;;;;7.90;4.70;;;15.50;99.90;;;;;;4932205;29;20430;-74
2022/11/03 12:43:15;;;;;;;10.65;6.63;;;15.40;99.90;;;;;;4934708;29;20774;-74
2022/11/03 12:45:40;;;;;;;11.23;6.93;;;15.60;99.90;;;;;;4935037;29;20403;-74
2022/11/03 12:48:06;;;;;;;10.50;6.88;;;15.40;99.90;;;;;;4931837;29;20411;-75
2022/11/03 12:50:32;;;;;;;8.68;6.45;;;15.20;99.90;;;;;;4932740;29;20515;-74
2022/11/03 12:52:58;;;;;;;9.05;6.65;;;15.30;99.90;;;;;;4932995;29;20487;-74
2022/11/03 12:55:23;;;;;;;8.48;6.32;;;15.30;99.90;;;;;;4933450;29;20403;-76
2022/11/03 12:57:49;;;;;;;10.40;7.00;;;15.40;99.90;;;;;;4934876;29;20807;-73
2022/11/03 13:00:15;;;;;;;9.90;6.10;;;15.40;99.90;;;;;;4934898;29;20428;-74
2022/11/03 13:02:40;;;;;;;10.30;7.10;;;15.50;99.90;;;;;;4934292;29;20758;-73
2022/11/03 13:05:06;;;;;;;11.52;7.40;;;15.50;99.90;;;;;;4935958;29;20406;-75
2022/11/03 13:07:32;;;;;;;13.05;8.20;;;15.50;99.90;;;;;;4933533;29;20403;-74
2022/11/03 13:09:57;;;;;;;8.70;6.60;;;15.50;99.90;;;;;;4934644;29;20410;-74
2022/11/03 13:12:33;;;;;;;12.68;7.32;;;15.50;99.90;;;;;;4934678;29;20403;-75
2022/11/03 13:15:01;;;;;;;10.88;6.88;;;15.50;99.90;;;;;;4935466;29;20966;-74
2022/11/03 13:17:27;;;;;;;9.30;7.10;;;15.40;99.90;;;;;;4933940;29;20766;-74
2022/11/03 13:19:53;;;;;;;10.80;5.75;;;15.50;99.90;;;;;;4934510;29;20519;-74
2022/11/03 13:22:19;;;;;;;10.43;6.10;;;15.50;99.90;;;;;;4932403;29;20416;-74